Rockvale, TN (37153)

3:19 AM CST on December 18, 2014 (GMT -0600)
Amateur Radio Station KM4TM | Change Station
CLOSE
Current Station
Personal Weather Station
Location: Rockvale, TN
Elevation: 807 ft
Nearby Weather Stations
Active Advisory: Special Statement

Elev 807 ft 35.76 °N, 86.55 °W | Updated 12 seconds ago

Mostly Cloudy
Mostly Cloudy
33.9 °F
Feels Like 34 °F
N
3.0
Wind Variable Wind from NE
Gusts 5.0 mph

Today
High -- | Low -- °F
--% Chance of Precip.
Yesterday
High -- | Low -- °F
Precip. -- in
6:50 AM 4:35 PM
Waning Crescent, 16% visible
Pressure 30.33 in
Visibility 7.0 miles
Clouds Mostly Cloudy 4700 ft
Windchill 34 °F
Dew Point 32 °F
Humidity 91%
Rainfall 0.00 in
Snow Depth Not available.
UV 0 out of 12
Pollen .10 out of 12
Air Quality Not available.
Flu Activity Not available.
METAR KMQY 180856Z AUTO VRB04KT 7SM -RA BKN047 01/M01 A3029 RMK AO2 50004 60000 T00051011 RAB25 P0000 SLP270

More Conditions Fewer Conditions

Pressure 30.33 in
Visibility 7.0 miles
Clouds Mostly Cloudy 4700 ft
Windchill 34 °F
Dew Point 32 °F
Humidity 91%
Rainfall 0.00 in
Snow Depth Not available.
UV 0 out of 12
Pollen .10 out of 12
Air Quality Not available.
Flu Activity Not available.
METAR KMQY 180856Z AUTO VRB04KT 7SM -RA BKN047 01/M01 A3029 RMK AO2 50004 60000 T00051011 RAB25 P0000 SLP270

More Conditions Fewer Conditions

10-Day Weather Forecast

Almanac

Astronomy

Dec. 18, 2014 Rise Set
Actual Time
Civil Twilight
Nautical Twilight
Astronomical Twilight
Moon
Length of Visible Light
Length of Day
Tomorrow will be .
, % of the Moon is Illuminated

Today's Extremes

State Highs State Lows

Community

WunderPhotos

Upload Photos

1,778,907 photos uploaded!

WunderBlogs® & News

Nearby

Air Quality

  Air Quality AQ Index Pollutant
Not available.

Snow Depth

Station Depth Elevation

Earthquake Activity

City Distance Mag. Time & Date
Minimum magnitude displayed is 2.5.

Coastal Water Temperatures

Place Temperature

Nearby Weather Stations